AUR4HJ EGJJ-EGHQ
Flight info
| Callsign | AUR4HJ |
|---|---|
| Flight time | 0h 36m |
| Altitude | 20000 |
| Route | SKERY |
| Aircraft | AT76/M-SDFGIRY/S |
Departure
| Time | 2026-05-09 20:33 |
|---|---|
| Airport | Jersey Airport (EGJJ) |
Arrival
| Time | 2026-05-09 21:09 |
|---|---|
| Airport | Cornwall Airport Newquay (EGHQ) |
| Time | Latitude | Longitude | Altitude | Speed | Heading |
|---|---|---|---|---|---|
| 2026-05-09 20:26 | 49.20485 | -2.19843 | 277 ft | 0 kts | 350° |
| 2026-05-09 20:31 | 49.20506 | -2.19925 | 277 ft | 20 kts | 279° |
| 2026-05-09 20:31 | 49.20564 | -2.20225 | 276 ft | 37 kts | 288° |
| 2026-05-09 20:31 | 49.20626 | -2.20615 | 276 ft | 35 kts | 272° |
| 2026-05-09 20:31 | 49.20671 | -2.20709 | 276 ft | 15 kts | 13° |
| 2026-05-09 20:32 | 49.20718 | -2.20544 | 275 ft | 42 kts | 82° |
| 2026-05-09 20:32 | 49.20780 | -2.19781 | 278 ft | 101 kts | 83° |
| 2026-05-09 20:32 | 49.20887 | -2.18511 | 475 ft | 128 kts | 82° |
| 2026-05-09 20:32 | 49.21022 | -2.17023 | 720 ft | 159 kts | 79° |
| 2026-05-09 20:33 | 49.21200 | -2.15274 | 1209 ft | 165 kts | 82° |
| 2026-05-09 20:33 | 49.21328 | -2.13548 | 1926 ft | 161 kts | 82° |
| 2026-05-09 20:33 | 49.21466 | -2.11838 | 2467 ft | 168 kts | 82° |
| 2026-05-09 20:33 | 49.21615 | -2.10070 | 3110 ft | 168 kts | 82° |
| 2026-05-09 20:34 | 49.21837 | -2.08300 | 3635 ft | 169 kts | 67° |
| 2026-05-09 20:34 | 49.22752 | -2.07159 | 4178 ft | 183 kts | 17° |
| 2026-05-09 20:34 | 49.24019 | -2.07473 | 4778 ft | 193 kts | 336° |
| 2026-05-09 20:34 | 49.25135 | -2.08651 | 5329 ft | 198 kts | 323° |
| 2026-05-09 20:35 | 49.26162 | -2.10073 | 5918 ft | 198 kts | 318° |
| 2026-05-09 20:35 | 49.27153 | -2.11535 | 6520 ft | 198 kts | 317° |
| 2026-05-09 20:35 | 49.28144 | -2.13023 | 7068 ft | 201 kts | 317° |
| 2026-05-09 20:35 | 49.29154 | -2.14528 | 7597 ft | 202 kts | 317° |
| 2026-05-09 20:36 | 49.30183 | -2.16053 | 8056 ft | 208 kts | 317° |
| 2026-05-09 20:36 | 49.31231 | -2.17569 | 8623 ft | 207 kts | 317° |
| 2026-05-09 20:36 | 49.32302 | -2.19107 | 9082 ft | 212 kts | 317° |
| 2026-05-09 20:36 | 49.33393 | -2.20663 | 9573 ft | 216 kts | 317° |
| 2026-05-09 20:37 | 49.34502 | -2.22241 | 10058 ft | 219 kts | 317° |
| 2026-05-09 20:37 | 49.35590 | -2.23795 | 10618 ft | 215 kts | 317° |
| 2026-05-09 20:37 | 49.36691 | -2.25363 | 11041 ft | 220 kts | 316° |
| 2026-05-09 20:37 | 49.37806 | -2.26959 | 11524 ft | 220 kts | 316° |
| 2026-05-09 20:38 | 49.38917 | -2.28550 | 12040 ft | 217 kts | 316° |
| 2026-05-09 20:38 | 49.40030 | -2.30138 | 12512 ft | 219 kts | 316° |
| 2026-05-09 20:38 | 49.41161 | -2.31736 | 12926 ft | 223 kts | 315° |
| 2026-05-09 20:38 | 49.42311 | -2.33350 | 13396 ft | 223 kts | 316° |
| 2026-05-09 20:39 | 49.43453 | -2.34969 | 13861 ft | 225 kts | 315° |
| 2026-05-09 20:39 | 49.44618 | -2.36612 | 14211 ft | 228 kts | 314° |
| 2026-05-09 20:39 | 49.45778 | -2.38264 | 14635 ft | 227 kts | 314° |
| 2026-05-09 20:39 | 49.46943 | -2.39920 | 15017 ft | 228 kts | 314° |
| 2026-05-09 20:40 | 49.48098 | -2.41591 | 15412 ft | 229 kts | 313° |
| 2026-05-09 20:40 | 49.49250 | -2.43243 | 15765 ft | 230 kts | 314° |
| 2026-05-09 20:40 | 49.50414 | -2.44925 | 16156 ft | 230 kts | 314° |
| 2026-05-09 20:40 | 49.51589 | -2.46611 | 16513 ft | 231 kts | 314° |
| 2026-05-09 20:41 | 49.52764 | -2.48300 | 16879 ft | 232 kts | 314° |
| 2026-05-09 20:41 | 49.53947 | -2.50001 | 17199 ft | 234 kts | 314° |
| 2026-05-09 20:41 | 49.55135 | -2.51716 | 17541 ft | 234 kts | 314° |
| 2026-05-09 20:41 | 49.56329 | -2.53438 | 17866 ft | 236 kts | 313° |
| 2026-05-09 20:42 | 49.57530 | -2.55169 | 18188 ft | 237 kts | 313° |
| 2026-05-09 20:42 | 49.58739 | -2.56916 | 18475 ft | 238 kts | 313° |
| 2026-05-09 20:42 | 49.59541 | -2.58074 | 18654 ft | 238 kts | 314° |
| 2026-05-09 20:42 | 49.60752 | -2.59826 | 18910 ft | 239 kts | 313° |
| 2026-05-09 20:43 | 49.61968 | -2.61588 | 19163 ft | 240 kts | 313° |
| 2026-05-09 20:43 | 49.63190 | -2.63356 | 19416 ft | 241 kts | 313° |
| 2026-05-09 20:43 | 49.64416 | -2.65134 | 19661 ft | 242 kts | 313° |
| 2026-05-09 20:43 | 49.65647 | -2.66920 | 19873 ft | 245 kts | 313° |
| 2026-05-09 20:44 | 49.66909 | -2.68750 | 19968 ft | 252 kts | 313° |
| 2026-05-09 20:44 | 49.68205 | -2.70637 | 20023 ft | 260 kts | 313° |
| 2026-05-09 20:44 | 49.69541 | -2.72575 | 20042 ft | 267 kts | 313° |
| 2026-05-09 20:44 | 49.70914 | -2.74567 | 20053 ft | 273 kts | 313° |
| 2026-05-09 20:45 | 49.72306 | -2.76599 | 20061 ft | 278 kts | 313° |
| 2026-05-09 20:45 | 49.73726 | -2.78662 | 20065 ft | 281 kts | 313° |
| 2026-05-09 20:45 | 49.75145 | -2.80730 | 20067 ft | 279 kts | 313° |
| 2026-05-09 20:45 | 49.76546 | -2.82775 | 20072 ft | 281 kts | 313° |
| 2026-05-09 20:46 | 49.77980 | -2.84872 | 20072 ft | 285 kts | 313° |
| 2026-05-09 20:46 | 49.79431 | -2.86988 | 20073 ft | 288 kts | 313° |
| 2026-05-09 20:46 | 49.80891 | -2.89127 | 20073 ft | 290 kts | 313° |
| 2026-05-09 20:46 | 49.82365 | -2.91281 | 20073 ft | 292 kts | 313° |
| 2026-05-09 20:47 | 49.83841 | -2.93449 | 20076 ft | 293 kts | 313° |
| 2026-05-09 20:47 | 49.85327 | -2.95626 | 20076 ft | 294 kts | 313° |
| 2026-05-09 20:47 | 49.86798 | -2.97788 | 20076 ft | 295 kts | 313° |
| 2026-05-09 20:47 | 49.88291 | -2.99980 | 20076 ft | 296 kts | 313° |
| 2026-05-09 20:48 | 49.89785 | -3.02179 | 20079 ft | 296 kts | 313° |
| 2026-05-09 20:48 | 49.91282 | -3.04384 | 20079 ft | 297 kts | 313° |
| 2026-05-09 20:48 | 49.92786 | -3.06596 | 20079 ft | 297 kts | 313° |
| 2026-05-09 20:48 | 49.94282 | -3.08813 | 20085 ft | 297 kts | 314° |
| 2026-05-09 20:49 | 49.95783 | -3.11021 | 20087 ft | 298 kts | 314° |
| 2026-05-09 20:49 | 49.97281 | -3.13235 | 20087 ft | 297 kts | 314° |
| 2026-05-09 20:49 | 49.98785 | -3.15454 | 20087 ft | 298 kts | 314° |
| 2026-05-09 20:49 | 50.00112 | -3.17862 | 20089 ft | 289 kts | 297° |
| 2026-05-09 20:50 | 50.00932 | -3.20696 | 20092 ft | 287 kts | 287° |
| 2026-05-09 20:50 | 50.01551 | -3.23611 | 20093 ft | 287 kts | 284° |
| 2026-05-09 20:50 | 50.02147 | -3.26584 | 20091 ft | 288 kts | 285° |
| 2026-05-09 20:50 | 50.02782 | -3.29552 | 20091 ft | 289 kts | 287° |
| 2026-05-09 20:51 | 50.03459 | -3.32501 | 20090 ft | 290 kts | 287° |
| 2026-05-09 20:51 | 50.04141 | -3.35454 | 20090 ft | 290 kts | 287° |
| 2026-05-09 20:51 | 50.04819 | -3.38412 | 20090 ft | 291 kts | 287° |
| 2026-05-09 20:51 | 50.05497 | -3.41378 | 20090 ft | 291 kts | 287° |
| 2026-05-09 20:52 | 50.06174 | -3.44341 | 20090 ft | 291 kts | 287° |
| 2026-05-09 20:52 | 50.06853 | -3.47319 | 20093 ft | 291 kts | 287° |
| 2026-05-09 20:52 | 50.07529 | -3.50293 | 20093 ft | 291 kts | 287° |
| 2026-05-09 20:52 | 50.08204 | -3.53265 | 20093 ft | 291 kts | 287° |
| 2026-05-09 20:53 | 50.08872 | -3.56202 | 20093 ft | 291 kts | 287° |
| 2026-05-09 20:53 | 50.09546 | -3.59180 | 20095 ft | 292 kts | 287° |
| 2026-05-09 20:53 | 50.10218 | -3.62148 | 20095 ft | 292 kts | 287° |
| 2026-05-09 20:53 | 50.10895 | -3.65135 | 20095 ft | 292 kts | 287° |
| 2026-05-09 20:54 | 50.11568 | -3.68123 | 20097 ft | 292 kts | 287° |
| 2026-05-09 20:54 | 50.12239 | -3.71098 | 20097 ft | 291 kts | 287° |
| 2026-05-09 20:54 | 50.12911 | -3.74083 | 20096 ft | 291 kts | 287° |
| 2026-05-09 20:54 | 50.13583 | -3.77068 | 20098 ft | 291 kts | 287° |
| 2026-05-09 20:55 | 50.14252 | -3.80051 | 20096 ft | 292 kts | 287° |
| 2026-05-09 20:55 | 50.14921 | -3.83035 | 20096 ft | 292 kts | 287° |
| 2026-05-09 20:55 | 50.15588 | -3.86018 | 20096 ft | 292 kts | 287° |
| 2026-05-09 20:55 | 50.16258 | -3.89009 | 20096 ft | 292 kts | 287° |
| 2026-05-09 20:56 | 50.16928 | -3.92013 | 19989 ft | 295 kts | 287° |
| 2026-05-09 20:56 | 50.18265 | -3.98004 | 19065 ft | 290 kts | 287° |
| 2026-05-09 20:56 | 50.18927 | -4.00968 | 18611 ft | 288 kts | 288° |
| 2026-05-09 20:57 | 50.19934 | -4.03617 | 18129 ft | 285 kts | 310° |
| 2026-05-09 20:57 | 50.21289 | -4.05867 | 17618 ft | 285 kts | 313° |
| 2026-05-09 20:57 | 50.22672 | -4.08034 | 17111 ft | 285 kts | 314° |
| 2026-05-09 20:57 | 50.24087 | -4.10203 | 16620 ft | 285 kts | 314° |
| 2026-05-09 20:58 | 50.25508 | -4.12366 | 16127 ft | 284 kts | 315° |
| 2026-05-09 20:58 | 50.26926 | -4.14518 | 15621 ft | 284 kts | 315° |
| 2026-05-09 20:58 | 50.28332 | -4.16662 | 15123 ft | 282 kts | 315° |
| 2026-05-09 20:58 | 50.29730 | -4.18812 | 14631 ft | 281 kts | 315° |
| 2026-05-09 20:59 | 50.31116 | -4.20960 | 14146 ft | 279 kts | 315° |
| 2026-05-09 20:59 | 50.32490 | -4.23103 | 13642 ft | 279 kts | 315° |
| 2026-05-09 20:59 | 50.33853 | -4.25250 | 13106 ft | 277 kts | 315° |
| 2026-05-09 21:00 | 50.36551 | -4.29527 | 12065 ft | 275 kts | 315° |
| 2026-05-09 21:00 | 50.37876 | -4.31652 | 11552 ft | 274 kts | 315° |
| 2026-05-09 21:00 | 50.39191 | -4.33796 | 11053 ft | 272 kts | 314° |
| 2026-05-09 21:00 | 50.40493 | -4.35938 | 10559 ft | 271 kts | 315° |
| 2026-05-09 21:01 | 50.41777 | -4.38094 | 10074 ft | 269 kts | 315° |
| 2026-05-09 21:01 | 50.43044 | -4.40252 | 9557 ft | 268 kts | 315° |
| 2026-05-09 21:01 | 50.44307 | -4.42404 | 9029 ft | 267 kts | 314° |
| 2026-05-09 21:02 | 50.45917 | -4.47433 | 7992 ft | 269 kts | 268° |
| 2026-05-09 21:02 | 50.45411 | -4.50220 | 7487 ft | 265 kts | 244° |
| 2026-05-09 21:02 | 50.44603 | -4.52778 | 7013 ft | 266 kts | 241° |
| 2026-05-09 21:02 | 50.43737 | -4.55354 | 6513 ft | 267 kts | 240° |
| 2026-05-09 21:03 | 50.42851 | -4.57915 | 5996 ft | 268 kts | 240° |
| 2026-05-09 21:03 | 50.41954 | -4.60478 | 5461 ft | 268 kts | 240° |
| 2026-05-09 21:03 | 50.41049 | -4.63035 | 4969 ft | 268 kts | 239° |
| 2026-05-09 21:03 | 50.40141 | -4.65592 | 4461 ft | 269 kts | 239° |
| 2026-05-09 21:04 | 50.39251 | -4.68092 | 3953 ft | 253 kts | 239° |
| 2026-05-09 21:04 | 50.38412 | -4.70432 | 3441 ft | 240 kts | 239° |
| 2026-05-09 21:04 | 50.37591 | -4.72683 | 2925 ft | 239 kts | 239° |
| 2026-05-09 21:04 | 50.36994 | -4.75054 | 2643 ft | 228 kts | 265° |
| 2026-05-09 21:05 | 50.36871 | -4.77351 | 2514 ft | 204 kts | 268° |
| 2026-05-09 21:05 | 50.36765 | -4.79476 | 2459 ft | 191 kts | 268° |
| 2026-05-09 21:05 | 50.36930 | -4.81398 | 2390 ft | 166 kts | 303° |
| 2026-05-09 21:05 | 50.37506 | -4.82898 | 2387 ft | 155 kts | 311° |
| 2026-05-09 21:06 | 50.38081 | -4.84253 | 2395 ft | 144 kts | 313° |
| 2026-05-09 21:06 | 50.38647 | -4.85528 | 2265 ft | 141 kts | 314° |
| 2026-05-09 21:06 | 50.39200 | -4.86793 | 2075 ft | 140 kts | 314° |
| 2026-05-09 21:06 | 50.39729 | -4.88078 | 1888 ft | 140 kts | 311° |
| 2026-05-09 21:07 | 50.40223 | -4.89384 | 1700 ft | 137 kts | 310° |
| 2026-05-09 21:07 | 50.40681 | -4.90666 | 1506 ft | 132 kts | 310° |
| 2026-05-09 21:07 | 50.41143 | -4.91879 | 1344 ft | 128 kts | 313° |
| 2026-05-09 21:07 | 50.41616 | -4.93056 | 1193 ft | 128 kts | 313° |
| 2026-05-09 21:08 | 50.42092 | -4.94264 | 1012 ft | 134 kts | 309° |
| 2026-05-09 21:08 | 50.42552 | -4.95524 | 801 ft | 128 kts | 308° |
| 2026-05-09 21:08 | 50.43015 | -4.96700 | 684 ft | 127 kts | 306° |
| 2026-05-09 21:08 | 50.43462 | -4.97894 | 477 ft | 126 kts | 302° |
| 2026-05-09 21:09 | 50.43888 | -4.99030 | 368 ft | 116 kts | 301° |
| 2026-05-09 21:09 | 50.44186 | -4.99822 | 336 ft | 44 kts | 300° |
| 2026-05-09 21:09 | 50.44340 | -5.00201 | 330 ft | 22 kts | 310° |
| 2026-05-09 21:09 | 50.44405 | -5.00256 | 330 ft | 8 kts | 25° |
| 2026-05-09 21:10 | 50.44452 | -5.00118 | 332 ft | 7 kts | 58° |
| 2026-05-09 21:10 | 50.44490 | -5.00110 | 329 ft | 12 kts | 342° |
| 2026-05-09 21:10 | 50.44541 | -5.00234 | 326 ft | 24 kts | 299° |
| 2026-05-09 21:10 | 50.44589 | -5.00360 | 323 ft | 8 kts | 302° |
| 2026-05-09 21:11 | 50.44626 | -5.00409 | 321 ft | 8 kts | 0° |